Terminal Aerodrome Forecast
Issued by NWS Twin Cities, MN

Home | Current Version | Previous Version | Text Only | Print | Product List | Glossary On
Versions: 1 2 3 4 5 6 7 8 9 10 11 12 13 14 15 16 17 18
457
FTUS43 KMPX 232333
TAFSTC
TAF
KSTC 232333Z 2400/2424 29004KT P6SM OVC016
     FM240800 00000KT 4SM BR OVC010
     FM241000 VRB02KT 2SM BR OVC008
      TEMPO 2410/2413 1SM BR OVC005
     FM241600 07003KT P6SM OVC012
     FM242100 06005KT P6SM OVC018=

USA.gov is the U.S. government's official web portal to all federal, state and local government web resources and services.